sensor_id;sensor_type;location;lat;lon;timestamp;temperature;humidity
83964;DHT22;73994;50.868;5.420;2024-03-22T00:01:56;11.90;72.20
83964;DHT22;73994;50.868;5.420;2024-03-22T00:07:44;11.90;72.30
83964;DHT22;73994;50.868;5.420;2024-03-22T00:13:32;11.90;72.30
83964;DHT22;73994;50.868;5.420;2024-03-22T00:19:19;11.90;72.30
83964;DHT22;73994;50.868;5.420;2024-03-22T00:25:06;11.90;72.30
83964;DHT22;73994;50.868;5.420;2024-03-22T00:30:53;11.90;72.10
83964;DHT22;73994;50.868;5.420;2024-03-22T00:36:40;11.90;72.10
83964;DHT22;73994;50.868;5.420;2024-03-22T00:46:18;11.90;72.00
83964;DHT22;73994;50.868;5.420;2024-03-22T00:52:05;11.90;72.00
83964;DHT22;73994;50.868;5.420;2024-03-22T00:57:52;11.90;72.00
83964;DHT22;73994;50.868;5.420;2024-03-22T01:03:39;11.90;72.00
83964;DHT22;73994;50.868;5.420;2024-03-22T01:09:27;11.90;72.10
83964;DHT22;73994;50.868;5.420;2024-03-22T01:15:14;11.90;72.10
83964;DHT22;73994;50.868;5.420;2024-03-22T01:21:02;11.90;72.30
83964;DHT22;73994;50.868;5.420;2024-03-22T01:26:50;11.90;72.40
83964;DHT22;73994;50.868;5.420;2024-03-22T01:32:37;11.90;72.30
83964;DHT22;73994;50.868;5.420;2024-03-22T01:38:25;11.90;72.20
83964;DHT22;73994;50.868;5.420;2024-03-22T01:44:13;11.90;72.30
83964;DHT22;73994;50.868;5.420;2024-03-22T01:50:01;11.90;72.30
83964;DHT22;73994;50.868;5.420;2024-03-22T01:55:49;11.90;72.70
83964;DHT22;73994;50.868;5.420;2024-03-22T02:01:36;11.90;72.80
83964;DHT22;73994;50.868;5.420;2024-03-22T02:07:50;11.90;72.90
83964;DHT22;73994;50.868;5.420;2024-03-22T02:13:37;11.90;73.20
83964;DHT22;73994;50.868;5.420;2024-03-22T02:19:24;11.90;73.20
83964;DHT22;73994;50.868;5.420;2024-03-22T02:25:11;11.90;73.00
83964;DHT22;73994;50.868;5.420;2024-03-22T02:31:01;11.90;72.90
83964;DHT22;73994;50.868;5.420;2024-03-22T02:36:49;12.00;72.90
83964;DHT22;73994;50.868;5.420;2024-03-22T02:42:36;12.00;72.90
83964;DHT22;73994;50.868;5.420;2024-03-22T02:48:23;12.00;72.80
83964;DHT22;73994;50.868;5.420;2024-03-22T02:54:11;11.90;72.70
83964;DHT22;73994;50.868;5.420;2024-03-22T03:00:00;12.00;72.50
83964;DHT22;73994;50.868;5.420;2024-03-22T03:05:47;11.90;72.50
83964;DHT22;73994;50.868;5.420;2024-03-22T03:11:35;11.90;72.60
83964;DHT22;73994;50.868;5.420;2024-03-22T03:17:22;11.60;73.10
83964;DHT22;73994;50.868;5.420;2024-03-22T03:23:10;11.50;73.40
83964;DHT22;73994;50.868;5.420;2024-03-22T03:28:57;11.40;73.40
83964;DHT22;73994;50.868;5.420;2024-03-22T03:34:44;11.40;73.40
83964;DHT22;73994;50.868;5.420;2024-03-22T03:40:31;11.40;73.20
83964;DHT22;73994;50.868;5.420;2024-03-22T03:46:18;11.40;73.10
83964;DHT22;73994;50.868;5.420;2024-03-22T03:52:05;11.50;73.00
83964;DHT22;73994;50.868;5.420;2024-03-22T03:57:53;11.60;72.70
83964;DHT22;73994;50.868;5.420;2024-03-22T04:03:40;11.70;72.60
83964;DHT22;73994;50.868;5.420;2024-03-22T04:09:28;11.70;72.50
83964;DHT22;73994;50.868;5.420;2024-03-22T04:15:16;11.60;72.60
83964;DHT22;73994;50.868;5.420;2024-03-22T04:21:03;11.70;72.40
83964;DHT22;73994;50.868;5.420;2024-03-22T04:26:51;11.70;72.20
83964;DHT22;73994;50.868;5.420;2024-03-22T04:32:38;11.70;72.00
83964;DHT22;73994;50.868;5.420;2024-03-22T04:38:25;11.70;71.70
83964;DHT22;73994;50.868;5.420;2024-03-22T04:44:12;11.70;71.70
83964;DHT22;73994;50.868;5.420;2024-03-22T04:49:59;11.70;71.90
83964;DHT22;73994;50.868;5.420;2024-03-22T04:55:47;11.70;71.90
83964;DHT22;73994;50.868;5.420;2024-03-22T05:01:35;11.70;71.80
83964;DHT22;73994;50.868;5.420;2024-03-22T05:07:23;11.80;71.70
83964;DHT22;73994;50.868;5.420;2024-03-22T05:13:10;11.90;71.60
83964;DHT22;73994;50.868;5.420;2024-03-22T05:18:57;11.80;71.80
83964;DHT22;73994;50.868;5.420;2024-03-22T05:24:44;11.70;72.10
83964;DHT22;73994;50.868;5.420;2024-03-22T05:30:31;11.70;72.30
83964;DHT22;73994;50.868;5.420;2024-03-22T05:36:18;11.70;72.50
83964;DHT22;73994;50.868;5.420;2024-03-22T05:42:05;11.70;72.60
83964;DHT22;73994;50.868;5.420;2024-03-22T05:47:52;11.70;72.50
83964;DHT22;73994;50.868;5.420;2024-03-22T05:53:39;11.70;72.70
83964;DHT22;73994;50.868;5.420;2024-03-22T05:59:27;11.70;72.90
83964;DHT22;73994;50.868;5.420;2024-03-22T06:05:14;11.70;72.70
83964;DHT22;73994;50.868;5.420;2024-03-22T06:11:02;11.80;72.50
83964;DHT22;73994;50.868;5.420;2024-03-22T06:16:50;11.90;72.20
83964;DHT22;73994;50.868;5.420;2024-03-22T06:22:37;11.90;72.10
83964;DHT22;73994;50.868;5.420;2024-03-22T06:28:28;12.00;72.00
83964;DHT22;73994;50.868;5.420;2024-03-22T06:33:56;12.00;71.60
83964;DHT22;73994;50.868;5.420;2024-03-22T06:39:49;12.10;71.60
83964;DHT22;73994;50.868;5.420;2024-03-22T06:45:36;12.20;71.20
83964;DHT22;73994;50.868;5.420;2024-03-22T06:51:24;12.40;70.90
83964;DHT22;73994;50.868;5.420;2024-03-22T06:57:10;12.50;71.00
83964;DHT22;73994;50.868;5.420;2024-03-22T07:02:57;12.50;70.90
83964;DHT22;73994;50.868;5.420;2024-03-22T07:08:46;12.40;71.00
83964;DHT22;73994;50.868;5.420;2024-03-22T07:14:34;12.40;71.10
83964;DHT22;73994;50.868;5.420;2024-03-22T07:20:21;12.50;71.10
83964;DHT22;73994;50.868;5.420;2024-03-22T07:26:08;12.50;70.80
83964;DHT22;73994;50.868;5.420;2024-03-22T07:31:55;12.50;70.50
83964;DHT22;73994;50.868;5.420;2024-03-22T07:37:43;12.80;69.70
83964;DHT22;73994;50.868;5.420;2024-03-22T07:43:32;12.80;69.50
83964;DHT22;73994;50.868;5.420;2024-03-22T07:49:19;12.90;69.00
83964;DHT22;73994;50.868;5.420;2024-03-22T07:55:07;13.10;68.30
83964;DHT22;73994;50.868;5.420;2024-03-22T08:00:54;13.10;68.20
83964;DHT22;73994;50.868;5.420;2024-03-22T08:06:42;13.10;68.30
83964;DHT22;73994;50.868;5.420;2024-03-22T08:12:30;13.10;68.50
83964;DHT22;73994;50.868;5.420;2024-03-22T08:18:18;13.30;68.00
83964;DHT22;73994;50.868;5.420;2024-03-22T08:24:05;13.60;67.40
83964;DHT22;73994;50.868;5.420;2024-03-22T08:29:53;13.70;67.30
83964;DHT22;73994;50.868;5.420;2024-03-22T08:35:40;13.70;66.90
83964;DHT22;73994;50.868;5.420;2024-03-22T08:41:28;13.60;66.90
83964;DHT22;73994;50.868;5.420;2024-03-22T08:47:15;13.60;67.40
83964;DHT22;73994;50.868;5.420;2024-03-22T08:53:03;13.50;67.10
83964;DHT22;73994;50.868;5.420;2024-03-22T08:58:52;13.50;67.30
83964;DHT22;73994;50.868;5.420;2024-03-22T09:04:39;13.90;66.40
83964;DHT22;73994;50.868;5.420;2024-03-22T09:10:27;14.30;65.40
83964;DHT22;73994;50.868;5.420;2024-03-22T09:16:15;14.70;64.30
83964;DHT22;73994;50.868;5.420;2024-03-22T09:22:02;14.40;63.90
83964;DHT22;73994;50.868;5.420;2024-03-22T09:27:50;14.70;63.40
83964;DHT22;73994;50.868;5.420;2024-03-22T09:33:37;14.90;62.60
83964;DHT22;73994;50.868;5.420;2024-03-22T09:39:25;14.80;61.60
83964;DHT22;73994;50.868;5.420;2024-03-22T09:45:15;14.10;64.00
83964;DHT22;73994;50.868;5.420;2024-03-22T09:51:06;14.50;63.00
83964;DHT22;73994;50.868;5.420;2024-03-22T09:56:56;14.60;60.60
83964;DHT22;73994;50.868;5.420;2024-03-22T10:02:49;15.30;59.60
83964;DHT22;73994;50.868;5.420;2024-03-22T10:08:37;15.60;58.40
83964;DHT22;73994;50.868;5.420;2024-03-22T10:14:26;16.20;56.20
83964;DHT22;73994;50.868;5.420;2024-03-22T10:20:14;17.20;55.00
83964;DHT22;73994;50.868;5.420;2024-03-22T10:26:00;16.70;56.00
83964;DHT22;73994;50.868;5.420;2024-03-22T10:31:49;16.00;55.60
83964;DHT22;73994;50.868;5.420;2024-03-22T10:37:36;16.00;55.80
83964;DHT22;73994;50.868;5.420;2024-03-22T10:43:23;16.00;56.70
83964;DHT22;73994;50.868;5.420;2024-03-22T10:49:16;16.00;55.50
83964;DHT22;73994;50.868;5.420;2024-03-22T10:55:07;16.10;55.80
83964;DHT22;73994;50.868;5.420;2024-03-22T11:00:56;16.00;56.10
83964;DHT22;73994;50.868;5.420;2024-03-22T11:06:50;15.50;57.50
83964;DHT22;73994;50.868;5.420;2024-03-22T11:12:40;15.40;58.20
83964;DHT22;73994;50.868;5.420;2024-03-22T11:18:27;15.60;58.10
83964;DHT22;73994;50.868;5.420;2024-03-22T11:24:15;15.60;57.10
83964;DHT22;73994;50.868;5.420;2024-03-22T11:30:03;16.00;56.00
83964;DHT22;73994;50.868;5.420;2024-03-22T11:35:51;18.10;52.70
83964;DHT22;73994;50.868;5.420;2024-03-22T11:41:38;19.10;50.90
83964;DHT22;73994;50.868;5.420;2024-03-22T11:47:26;18.30;52.00
83964;DHT22;73994;50.868;5.420;2024-03-22T11:53:16;20.80;49.70
83964;DHT22;73994;50.868;5.420;2024-03-22T11:59:03;19.70;49.40
83964;DHT22;73994;50.868;5.420;2024-03-22T12:08:11;18.20;52.50
83964;DHT22;73994;50.868;5.420;2024-03-22T12:14:12;17.80;53.10
83964;DHT22;73994;50.868;5.420;2024-03-22T12:20:00;17.00;54.40
83964;DHT22;73994;50.868;5.420;2024-03-22T12:25:47;16.10;57.20
83964;DHT22;73994;50.868;5.420;2024-03-22T12:31:34;16.10;56.60
83964;DHT22;73994;50.868;5.420;2024-03-22T12:37:21;15.80;57.20
83964;DHT22;73994;50.868;5.420;2024-03-22T12:43:09;15.90;57.10
83964;DHT22;73994;50.868;5.420;2024-03-22T12:48:57;15.70;57.20
83964;DHT22;73994;50.868;5.420;2024-03-22T12:54:45;16.40;56.50
83964;DHT22;73994;50.868;5.420;2024-03-22T13:00:32;15.90;57.50
83964;DHT22;73994;50.868;5.420;2024-03-22T13:06:20;15.40;58.70
83964;DHT22;73994;50.868;5.420;2024-03-22T13:12:08;15.60;59.20
83964;DHT22;73994;50.868;5.420;2024-03-22T13:17:56;15.80;58.10
83964;DHT22;73994;50.868;5.420;2024-03-22T13:23:43;15.80;58.20
83964;DHT22;73994;50.868;5.420;2024-03-22T13:29:31;15.60;58.70
83964;DHT22;73994;50.868;5.420;2024-03-22T13:35:19;15.60;59.60
83964;DHT22;73994;50.868;5.420;2024-03-22T13:41:06;14.80;61.00
83964;DHT22;73994;50.868;5.420;2024-03-22T13:46:53;14.80;61.20
83964;DHT22;73994;50.868;5.420;2024-03-22T13:52:41;14.50;61.60
83964;DHT22;73994;50.868;5.420;2024-03-22T13:58:29;14.30;62.10
83964;DHT22;73994;50.868;5.420;2024-03-22T14:04:17;14.30;63.20
83964;DHT22;73994;50.868;5.420;2024-03-22T14:10:06;14.50;61.30
83964;DHT22;73994;50.868;5.420;2024-03-22T14:15:55;14.40;62.00
83964;DHT22;73994;50.868;5.420;2024-03-22T14:21:42;14.50;62.60
83964;DHT22;73994;50.868;5.420;2024-03-22T14:27:30;14.40;62.20
83964;DHT22;73994;50.868;5.420;2024-03-22T14:33:17;14.10;62.70
83964;DHT22;73994;50.868;5.420;2024-03-22T14:39:04;14.10;62.80
83964;DHT22;73994;50.868;5.420;2024-03-22T14:44:52;14.20;62.50
83964;DHT22;73994;50.868;5.420;2024-03-22T14:50:42;14.10;62.90
83964;DHT22;73994;50.868;5.420;2024-03-22T14:56:29;14.00;63.20
83964;DHT22;73994;50.868;5.420;2024-03-22T15:02:16;13.90;64.20
83964;DHT22;73994;50.868;5.420;2024-03-22T15:08:04;13.70;66.40
83964;DHT22;73994;50.868;5.420;2024-03-22T15:13:51;13.60;67.20
83964;DHT22;73994;50.868;5.420;2024-03-22T15:19:39;13.50;69.10
83964;DHT22;73994;50.868;5.420;2024-03-22T15:25:27;13.50;70.20
83964;DHT22;73994;50.868;5.420;2024-03-22T15:31:14;13.30;70.80
83964;DHT22;73994;50.868;5.420;2024-03-22T15:37:02;13.10;71.20
83964;DHT22;73994;50.868;5.420;2024-03-22T15:42:50;12.90;72.50
83964;DHT22;73994;50.868;5.420;2024-03-22T15:48:38;13.00;72.20
83964;DHT22;73994;50.868;5.420;2024-03-22T15:54:25;13.10;72.50
83964;DHT22;73994;50.868;5.420;2024-03-22T16:00:13;13.00;72.30
83964;DHT22;73994;50.868;5.420;2024-03-22T16:06:00;13.10;72.20
83964;DHT22;73994;50.868;5.420;2024-03-22T16:11:48;13.10;71.80
83964;DHT22;73994;50.868;5.420;2024-03-22T16:17:35;12.90;72.00
83964;DHT22;73994;50.868;5.420;2024-03-22T16:23:23;12.60;72.90
83964;DHT22;73994;50.868;5.420;2024-03-22T16:29:09;12.50;73.10
83964;DHT22;73994;50.868;5.420;2024-03-22T16:34:56;12.50;74.00
83964;DHT22;73994;50.868;5.420;2024-03-22T16:40:44;12.30;74.00
83964;DHT22;73994;50.868;5.420;2024-03-22T16:46:31;12.30;74.00
83964;DHT22;73994;50.868;5.420;2024-03-22T16:52:17;12.10;75.40
83964;DHT22;73994;50.868;5.420;2024-03-22T16:58:05;11.80;76.20
83964;DHT22;73994;50.868;5.420;2024-03-22T17:03:53;11.70;77.50
83964;DHT22;73994;50.868;5.420;2024-03-22T17:09:41;11.60;77.50
83964;DHT22;73994;50.868;5.420;2024-03-22T17:15:29;11.50;78.20
83964;DHT22;73994;50.868;5.420;2024-03-22T17:21:16;11.50;78.20
83964;DHT22;73994;50.868;5.420;2024-03-22T17:27:04;11.50;79.30
83964;DHT22;73994;50.868;5.420;2024-03-22T17:32:52;11.50;79.50
83964;DHT22;73994;50.868;5.420;2024-03-22T17:38:39;11.40;79.70
83964;DHT22;73994;50.868;5.420;2024-03-22T17:44:26;11.40;79.10
83964;DHT22;73994;50.868;5.420;2024-03-22T17:50:13;11.30;78.70
83964;DHT22;73994;50.868;5.420;2024-03-22T17:56:00;11.20;78.90
83964;DHT22;73994;50.868;5.420;2024-03-22T18:01:47;11.10;78.70
83964;DHT22;73994;50.868;5.420;2024-03-22T18:07:35;11.10;77.80
83964;DHT22;73994;50.868;5.420;2024-03-22T18:13:22;11.10;78.50
83964;DHT22;73994;50.868;5.420;2024-03-22T18:19:10;11.10;78.90
83964;DHT22;73994;50.868;5.420;2024-03-22T18:24:58;11.10;78.50
83964;DHT22;73994;50.868;5.420;2024-03-22T18:30:45;11.00;80.40
83964;DHT22;73994;50.868;5.420;2024-03-22T18:36:33;10.80;80.90
83964;DHT22;73994;50.868;5.420;2024-03-22T18:42:21;10.70;82.40
83964;DHT22;73994;50.868;5.420;2024-03-22T18:48:08;10.80;81.40
83964;DHT22;73994;50.868;5.420;2024-03-22T18:53:55;10.60;83.90
83964;DHT22;73994;50.868;5.420;2024-03-22T18:59:44;10.60;83.70
83964;DHT22;73994;50.868;5.420;2024-03-22T19:05:31;10.60;83.30
83964;DHT22;73994;50.868;5.420;2024-03-22T19:11:18;10.60;83.90
83964;DHT22;73994;50.868;5.420;2024-03-22T19:17:06;10.50;84.30
83964;DHT22;73994;50.868;5.420;2024-03-22T19:22:55;10.50;84.00
83964;DHT22;73994;50.868;5.420;2024-03-22T19:28:45;10.60;85.00
83964;DHT22;73994;50.868;5.420;2024-03-22T19:34:32;10.60;84.40
83964;DHT22;73994;50.868;5.420;2024-03-22T19:40:19;10.60;84.20
83964;DHT22;73994;50.868;5.420;2024-03-22T19:46:06;10.60;83.80
83964;DHT22;73994;50.868;5.420;2024-03-22T19:51:53;10.50;83.40
83964;DHT22;73994;50.868;5.420;2024-03-22T19:57:40;10.50;82.80
83964;DHT22;73994;50.868;5.420;2024-03-22T20:03:27;10.30;81.40
83964;DHT22;73994;50.868;5.420;2024-03-22T20:09:14;10.30;80.80
83964;DHT22;73994;50.868;5.420;2024-03-22T20:15:04;10.30;81.50
83964;DHT22;73994;50.868;5.420;2024-03-22T20:20:54;10.30;80.50
83964;DHT22;73994;50.868;5.420;2024-03-22T20:26:42;10.30;80.90
83964;DHT22;73994;50.868;5.420;2024-03-22T20:32:29;10.30;80.50
